Tahsis, Canada
Current Conditions -  °F | °C
As of 6:00 AM on Wednesday 28 Jan 2015 (Local Time) from CYZT Reporting Station
Scattered Clouds Scattered Clouds  
Wind Chill: 30°   Ceiling: Unl
Heat Index: 30°   Visibility: 15mi
Dew Point: 30°   Wind: 3mph
Humidity: 100%   Direction: 220°SW
Pressure: 30.34"   Gusts: NA
Location:  49.92°N, 126.67°W
Report Text: CYZT 281400Z 22003KT 15SM SCT230 M01/M01 A3034 RMK CI3 FROIN SLP275
Loading
Personal Weather Stations






























Interactive Weather Map New forecast layout! Learn more

10-Day Weather Forecast

Advertisements
Track Severe Weather on mobile